sensor_id;sensor_type;location;lat;lon;timestamp;pressure;altitude;pressure_sealevel;temperature;humidity
27984;BME280;15317;50.360;8.726;2023-06-26T00:01:37;99379.16;;;18.26;100.00
27984;BME280;15317;50.360;8.726;2023-06-26T00:06:42;99369.84;;;18.21;100.00
27984;BME280;15317;50.360;8.726;2023-06-26T00:11:45;99369.84;;;18.14;100.00
27984;BME280;15317;50.360;8.726;2023-06-26T00:16:50;99370.25;;;18.04;100.00
27984;BME280;15317;50.360;8.726;2023-06-26T00:21:53;99375.53;;;17.99;100.00
27984;BME280;15317;50.360;8.726;2023-06-26T00:26:57;99378.69;;;17.90;100.00
27984;BME280;15317;50.360;8.726;2023-06-26T00:32:02;99377.44;;;17.86;100.00
27984;BME280;15317;50.360;8.726;2023-06-26T00:37:05;99370.63;;;17.75;100.00
27984;BME280;15317;50.360;8.726;2023-06-26T00:42:09;99368.53;;;17.70;100.00
27984;BME280;15317;50.360;8.726;2023-06-26T00:47:15;99368.31;;;17.65;100.00
27984;BME280;15317;50.360;8.726;2023-06-26T00:52:20;99374.81;;;17.58;100.00
27984;BME280;15317;50.360;8.726;2023-06-26T00:57:23;99365.06;;;17.55;100.00
27984;BME280;15317;50.360;8.726;2023-06-26T01:02:28;99360.84;;;17.46;100.00
27984;BME280;15317;50.360;8.726;2023-06-26T01:07:36;99359.75;;;17.41;100.00
27984;BME280;15317;50.360;8.726;2023-06-26T01:12:40;99362.28;;;17.35;100.00
27984;BME280;15317;50.360;8.726;2023-06-26T01:17:44;99354.03;;;17.29;100.00
27984;BME280;15317;50.360;8.726;2023-06-26T01:22:59;99361.59;;;17.27;100.00
27984;BME280;15317;50.360;8.726;2023-06-26T01:28:08;99355.91;;;17.22;100.00
27984;BME280;15317;50.360;8.726;2023-06-26T01:33:12;99350.59;;;17.14;100.00
27984;BME280;15317;50.360;8.726;2023-06-26T01:38:18;99352.47;;;17.07;100.00
27984;BME280;15317;50.360;8.726;2023-06-26T01:43:27;99356.91;;;17.08;100.00
27984;BME280;15317;50.360;8.726;2023-06-26T01:48:34;99347.63;;;17.09;100.00
27984;BME280;15317;50.360;8.726;2023-06-26T01:53:45;99342.97;;;17.09;100.00
27984;BME280;15317;50.360;8.726;2023-06-26T01:58:51;99334.94;;;17.08;100.00
27984;BME280;15317;50.360;8.726;2023-06-26T02:03:57;99345.91;;;17.01;100.00
27984;BME280;15317;50.360;8.726;2023-06-26T02:09:00;99346.06;;;16.93;100.00
27984;BME280;15317;50.360;8.726;2023-06-26T02:14:05;99342.44;;;16.86;100.00
27984;BME280;15317;50.360;8.726;2023-06-26T02:19:08;99342.44;;;16.86;100.00
27984;BME280;15317;50.360;8.726;2023-06-26T02:24:12;99344.53;;;16.77;100.00
27984;BME280;15317;50.360;8.726;2023-06-26T02:29:17;99346.97;;;16.66;100.00
27984;BME280;15317;50.360;8.726;2023-06-26T02:34:20;99356.22;;;16.58;100.00
27984;BME280;15317;50.360;8.726;2023-06-26T02:39:23;99350.63;;;16.45;100.00
27984;BME280;15317;50.360;8.726;2023-06-26T02:44:27;99353.53;;;16.37;100.00
27984;BME280;15317;50.360;8.726;2023-06-26T02:49:31;99347.59;;;16.33;100.00
27984;BME280;15317;50.360;8.726;2023-06-26T02:54:34;99351.78;;;16.29;100.00
27984;BME280;15317;50.360;8.726;2023-06-26T02:59:39;99340.31;;;16.19;100.00
27984;BME280;15317;50.360;8.726;2023-06-26T03:04:42;99344.09;;;16.18;100.00
27984;BME280;15317;50.360;8.726;2023-06-26T03:09:45;99344.94;;;16.18;100.00
27984;BME280;15317;50.360;8.726;2023-06-26T03:14:50;99340.31;;;16.19;100.00
27984;BME280;15317;50.360;8.726;2023-06-26T03:19:53;99339.47;;;16.18;100.00
27984;BME280;15317;50.360;8.726;2023-06-26T03:24:56;99334.00;;;16.18;100.00
27984;BME280;15317;50.360;8.726;2023-06-26T03:30:01;99330.41;;;16.18;100.00
27984;BME280;15317;50.360;8.726;2023-06-26T03:35:05;99323.44;;;16.15;100.00
27984;BME280;15317;50.360;8.726;2023-06-26T03:40:09;99328.25;;;16.13;100.00
27984;BME280;15317;50.360;8.726;2023-06-26T03:45:14;99331.47;;;16.17;100.00
27984;BME280;15317;50.360;8.726;2023-06-26T03:50:17;99325.16;;;16.16;100.00
27984;BME280;15317;50.360;8.726;2023-06-26T03:55:21;99335.25;;;16.16;100.00
27984;BME280;15317;50.360;8.726;2023-06-26T04:00:27;99324.72;;;16.19;100.00
27984;BME280;15317;50.360;8.726;2023-06-26T04:05:30;99331.09;;;16.27;100.00
27984;BME280;15317;50.360;8.726;2023-06-26T04:10:35;99332.00;;;16.34;100.00
27984;BME280;15317;50.360;8.726;2023-06-26T04:15:40;99339.59;;;16.38;100.00
27984;BME280;15317;50.360;8.726;2023-06-26T04:21:04;99335.88;;;16.46;100.00
27984;BME280;15317;50.360;8.726;2023-06-26T04:26:08;99350.91;;;16.56;100.00
27984;BME280;15317;50.360;8.726;2023-06-26T04:31:12;99341.53;;;16.72;100.00
27984;BME280;15317;50.360;8.726;2023-06-26T04:36:16;99344.59;;;16.90;100.00
27984;BME280;15317;50.360;8.726;2023-06-26T04:41:19;99347.22;;;17.12;100.00
27984;BME280;15317;50.360;8.726;2023-06-26T04:46:23;99347.47;;;17.30;100.00
27984;BME280;15317;50.360;8.726;2023-06-26T04:51:27;99332.56;;;17.52;100.00
27984;BME280;15317;50.360;8.726;2023-06-26T04:56:31;99335.56;;;17.70;100.00
27984;BME280;15317;50.360;8.726;2023-06-26T05:01:35;99335.38;;;17.92;100.00
27984;BME280;15317;50.360;8.726;2023-06-26T05:06:41;99326.72;;;18.08;100.00
27984;BME280;15317;50.360;8.726;2023-06-26T05:11:44;99324.56;;;18.23;100.00
27984;BME280;15317;50.360;8.726;2023-06-26T05:16:48;99325.63;;;18.35;100.00
27984;BME280;15317;50.360;8.726;2023-06-26T05:21:52;99334.69;;;18.42;100.00
27984;BME280;15317;50.360;8.726;2023-06-26T05:26:56;99323.72;;;18.56;100.00
27984;BME280;15317;50.360;8.726;2023-06-26T05:32:02;99340.19;;;18.69;100.00
27984;BME280;15317;50.360;8.726;2023-06-26T05:37:07;99323.19;;;18.85;100.00
27984;BME280;15317;50.360;8.726;2023-06-26T05:42:12;99325.28;;;18.96;100.00
27984;BME280;15317;50.360;8.726;2023-06-26T05:47:17;99329.88;;;19.09;100.00
27984;BME280;15317;50.360;8.726;2023-06-26T05:52:21;99321.09;;;19.25;100.00
27984;BME280;15317;50.360;8.726;2023-06-26T05:57:24;99320.81;;;19.40;100.00
27984;BME280;15317;50.360;8.726;2023-06-26T06:02:30;99308.00;;;19.65;100.00
27984;BME280;15317;50.360;8.726;2023-06-26T06:07:34;99309.06;;;19.89;96.10
27984;BME280;15317;50.360;8.726;2023-06-26T06:12:38;99305.72;;;20.11;92.30
27984;BME280;15317;50.360;8.726;2023-06-26T06:17:43;99315.44;;;20.39;90.79
27984;BME280;15317;50.360;8.726;2023-06-26T06:22:46;99315.38;;;20.82;87.67
27984;BME280;15317;50.360;8.726;2023-06-26T06:27:50;99315.28;;;21.85;82.43
27984;BME280;15317;50.360;8.726;2023-06-26T06:32:55;99312.47;;;22.96;74.69
27984;BME280;15317;50.360;8.726;2023-06-26T06:37:58;99316.47;;;23.85;72.25
27984;BME280;15317;50.360;8.726;2023-06-26T06:43:02;99314.84;;;24.34;68.95
27984;BME280;15317;50.360;8.726;2023-06-26T06:48:06;99319.06;;;24.75;66.21
27984;BME280;15317;50.360;8.726;2023-06-26T06:53:10;99318.78;;;24.94;64.18
27984;BME280;15317;50.360;8.726;2023-06-26T06:58:13;99337.22;;;25.22;64.46
27984;BME280;15317;50.360;8.726;2023-06-26T07:03:19;99339.59;;;25.78;63.16
27984;BME280;15317;50.360;8.726;2023-06-26T07:08:24;99328.25;;;26.49;60.51
27984;BME280;15317;50.360;8.726;2023-06-26T07:13:27;99339.59;;;27.21;59.97
27984;BME280;15317;50.360;8.726;2023-06-26T07:18:32;99327.88;;;26.77;62.35
27984;BME280;15317;50.360;8.726;2023-06-26T07:23:35;99334.91;;;27.32;59.46
27984;BME280;15317;50.360;8.726;2023-06-26T07:28:38;99328.38;;;27.78;56.34
27984;BME280;15317;50.360;8.726;2023-06-26T07:33:43;99337.31;;;27.85;54.98
27984;BME280;15317;50.360;8.726;2023-06-26T07:38:46;99327.84;;;28.98;50.58
27984;BME280;15317;50.360;8.726;2023-06-26T07:43:50;99330.06;;;29.01;50.37
27984;BME280;15317;50.360;8.726;2023-06-26T07:48:54;99324.44;;;29.11;49.53
27984;BME280;15317;50.360;8.726;2023-06-26T07:53:58;99334.00;;;28.80;46.28
27984;BME280;15317;50.360;8.726;2023-06-26T07:59:01;99327.06;;;28.57;50.33
27984;BME280;15317;50.360;8.726;2023-06-26T08:04:07;99332.50;;;29.23;46.39
27984;BME280;15317;50.360;8.726;2023-06-26T08:09:13;99342.34;;;29.79;45.74
27984;BME280;15317;50.360;8.726;2023-06-26T08:14:17;99335.69;;;30.09;43.87
27984;BME280;15317;50.360;8.726;2023-06-26T08:19:21;99333.47;;;28.83;47.48
27984;BME280;15317;50.360;8.726;2023-06-26T08:24:25;99345.22;;;28.49;48.06
27984;BME280;15317;50.360;8.726;2023-06-26T08:29:28;99343.91;;;29.41;44.87
27984;BME280;15317;50.360;8.726;2023-06-26T08:34:33;99336.25;;;28.93;48.07
27984;BME280;15317;50.360;8.726;2023-06-26T08:39:36;99326.22;;;28.21;49.14
27984;BME280;15317;50.360;8.726;2023-06-26T08:44:39;99353.19;;;29.27;44.65
27984;BME280;15317;50.360;8.726;2023-06-26T08:50:08;99367.78;;;29.83;39.37
27984;BME280;15317;50.360;8.726;2023-06-26T08:55:12;99366.81;;;30.81;40.35
27984;BME280;15317;50.360;8.726;2023-06-26T09:00:18;99374.78;;;31.93;37.15
27984;BME280;15317;50.360;8.726;2023-06-26T09:05:23;99367.72;;;31.29;40.12
27984;BME280;15317;50.360;8.726;2023-06-26T09:10:26;99365.69;;;30.48;42.39
27984;BME280;15317;50.360;8.726;2023-06-26T09:15:37;99360.41;;;29.53;44.66
27984;BME280;15317;50.360;8.726;2023-06-26T09:20:42;99358.06;;;28.55;47.38
27984;BME280;15317;50.360;8.726;2023-06-26T09:25:47;99355.44;;;27.68;48.85
27984;BME280;15317;50.360;8.726;2023-06-26T09:30:51;99360.75;;;27.84;48.73
27984;BME280;15317;50.360;8.726;2023-06-26T09:35:56;99365.84;;;28.08;50.23
27984;BME280;15317;50.360;8.726;2023-06-26T09:40:59;99358.88;;;28.96;49.21
27984;BME280;15317;50.360;8.726;2023-06-26T09:46:03;99369.97;;;29.27;46.76
27984;BME280;15317;50.360;8.726;2023-06-26T09:51:07;99365.31;;;28.61;46.83
27984;BME280;15317;50.360;8.726;2023-06-26T09:56:15;99372.59;;;28.83;48.30
27984;BME280;15317;50.360;8.726;2023-06-26T10:01:20;99378.75;;;28.90;44.75
27984;BME280;15317;50.360;8.726;2023-06-26T10:06:27;99381.53;;;28.24;46.14
27984;BME280;15317;50.360;8.726;2023-06-26T10:11:35;99371.91;;;27.79;45.93
27984;BME280;15317;50.360;8.726;2023-06-26T10:16:41;99371.84;;;27.54;47.68
27984;BME280;15317;50.360;8.726;2023-06-26T10:21:48;99382.06;;;27.43;47.40
27984;BME280;15317;50.360;8.726;2023-06-26T10:26:57;99378.69;;;27.31;45.57
27984;BME280;15317;50.360;8.726;2023-06-26T10:32:04;99383.84;;;27.55;46.69
27984;BME280;15317;50.360;8.726;2023-06-26T10:37:12;99378.06;;;27.81;44.93
27984;BME280;15317;50.360;8.726;2023-06-26T10:42:15;99372.00;;;28.96;43.74
27984;BME280;15317;50.360;8.726;2023-06-26T10:47:29;99385.56;;;30.12;43.44
27984;BME280;15317;50.360;8.726;2023-06-26T10:52:37;99378.03;;;29.54;44.18
27984;BME280;15317;50.360;8.726;2023-06-26T10:57:44;99374.16;;;29.29;44.99
27984;BME280;15317;50.360;8.726;2023-06-26T11:02:49;99398.53;;;29.98;42.97
27984;BME280;15317;50.360;8.726;2023-06-26T11:08:04;99390.69;;;31.07;41.42
27984;BME280;15317;50.360;8.726;2023-06-26T11:13:08;99383.00;;;31.42;39.34
27984;BME280;15317;50.360;8.726;2023-06-26T11:18:14;99395.72;;;31.34;40.27
27984;BME280;15317;50.360;8.726;2023-06-26T11:23:22;99398.44;;;31.39;44.22
27984;BME280;15317;50.360;8.726;2023-06-26T11:28:26;99398.50;;;32.24;40.34
27984;BME280;15317;50.360;8.726;2023-06-26T11:33:30;99408.38;;;32.40;41.12
27984;BME280;15317;50.360;8.726;2023-06-26T11:38:38;99421.13;;;32.51;40.47
27984;BME280;15317;50.360;8.726;2023-06-26T11:43:42;99429.97;;;32.26;41.30
27984;BME280;15317;50.360;8.726;2023-06-26T11:48:48;99441.66;;;32.33;39.13
27984;BME280;15317;50.360;8.726;2023-06-26T11:53:53;99443.84;;;32.17;40.93
27984;BME280;15317;50.360;8.726;2023-06-26T11:58:57;99458.25;;;32.48;41.01
27984;BME280;15317;50.360;8.726;2023-06-26T12:04:04;99473.31;;;33.27;36.10
27984;BME280;15317;50.360;8.726;2023-06-26T12:09:10;99475.44;;;32.84;41.17
27984;BME280;15317;50.360;8.726;2023-06-26T12:14:14;99474.16;;;32.58;39.75
27984;BME280;15317;50.360;8.726;2023-06-26T12:19:24;99478.06;;;33.13;38.58
27984;BME280;15317;50.360;8.726;2023-06-26T12:24:28;99472.56;;;32.33;39.06
27984;BME280;15317;50.360;8.726;2023-06-26T12:29:32;99470.72;;;32.24;36.86
27984;BME280;15317;50.360;8.726;2023-06-26T12:34:38;99467.50;;;32.73;38.68
27984;BME280;15317;50.360;8.726;2023-06-26T12:39:47;99467.41;;;32.78;39.42
27984;BME280;15317;50.360;8.726;2023-06-26T12:44:51;99466.69;;;32.48;39.67
27984;BME280;15317;50.360;8.726;2023-06-26T12:49:54;99466.88;;;32.38;39.10
27984;BME280;15317;50.360;8.726;2023-06-26T12:54:59;99470.69;;;31.81;38.23
27984;BME280;15317;50.360;8.726;2023-06-26T13:00:03;99460.59;;;31.56;39.19
27984;BME280;15317;50.360;8.726;2023-06-26T13:05:07;99458.16;;;31.73;40.02
27984;BME280;15317;50.360;8.726;2023-06-26T13:10:12;99454.84;;;31.43;38.65
27984;BME280;15317;50.360;8.726;2023-06-26T13:15:15;99454.94;;;31.85;39.93
27984;BME280;15317;50.360;8.726;2023-06-26T13:20:18;99441.31;;;31.21;39.03
27984;BME280;15317;50.360;8.726;2023-06-26T13:25:23;99447.38;;;30.70;41.84
27984;BME280;15317;50.360;8.726;2023-06-26T13:30:26;99449.47;;;31.46;40.62
27984;BME280;15317;50.360;8.726;2023-06-26T13:35:31;99446.72;;;30.49;39.39
27984;BME280;15317;50.360;8.726;2023-06-26T13:40:37;99451.91;;;30.22;39.22
27984;BME280;15317;50.360;8.726;2023-06-26T13:45:40;99440.53;;;29.98;42.63
27984;BME280;15317;50.360;8.726;2023-06-26T13:50:44;99452.56;;;30.48;39.12
27984;BME280;15317;50.360;8.726;2023-06-26T13:55:57;99455.63;;;30.51;39.63
27984;BME280;15317;50.360;8.726;2023-06-26T14:01:00;99466.47;;;30.68;37.29
27984;BME280;15317;50.360;8.726;2023-06-26T14:06:04;99473.56;;;30.55;36.90
27984;BME280;15317;50.360;8.726;2023-06-26T14:11:09;99472.38;;;29.13;38.71
27984;BME280;15317;50.360;8.726;2023-06-26T14:16:12;99485.50;;;28.61;38.87
27984;BME280;15317;50.360;8.726;2023-06-26T14:21:15;99481.03;;;29.21;37.52
27984;BME280;15317;50.360;8.726;2023-06-26T14:26:19;99493.34;;;29.45;35.13
27984;BME280;15317;50.360;8.726;2023-06-26T14:31:22;99488.84;;;29.29;35.22
27984;BME280;15317;50.360;8.726;2023-06-26T14:36:26;99502.31;;;29.27;34.90
27984;BME280;15317;50.360;8.726;2023-06-26T14:41:32;99511.81;;;28.91;37.42
27984;BME280;15317;50.360;8.726;2023-06-26T14:46:35;99506.66;;;28.22;36.06
27984;BME280;15317;50.360;8.726;2023-06-26T14:51:39;99493.03;;;27.73;38.89
27984;BME280;15317;50.360;8.726;2023-06-26T14:56:43;99507.22;;;28.29;36.07
27984;BME280;15317;50.360;8.726;2023-06-26T15:01:47;99508.09;;;27.72;34.94
27984;BME280;15317;50.360;8.726;2023-06-26T15:06:51;99500.88;;;27.81;34.56
27984;BME280;15317;50.360;8.726;2023-06-26T15:11:56;99494.00;;;28.09;36.16
27984;BME280;15317;50.360;8.726;2023-06-26T15:16:59;99495.91;;;27.94;37.07
27984;BME280;15317;50.360;8.726;2023-06-26T15:22:03;99503.31;;;27.68;37.80
27984;BME280;15317;50.360;8.726;2023-06-26T15:27:07;99496.56;;;27.59;36.78
27984;BME280;15317;50.360;8.726;2023-06-26T15:32:10;99506.41;;;27.71;37.46
27984;BME280;15317;50.360;8.726;2023-06-26T15:37:13;99525.31;;;27.59;36.80
27984;BME280;15317;50.360;8.726;2023-06-26T15:42:18;99505.66;;;27.44;37.35
27984;BME280;15317;50.360;8.726;2023-06-26T15:47:21;99500.50;;;27.21;35.73
27984;BME280;15317;50.360;8.726;2023-06-26T15:52:24;99502.09;;;27.11;37.28
27984;BME280;15317;50.360;8.726;2023-06-26T15:57:30;99506.59;;;27.18;35.74
27984;BME280;15317;50.360;8.726;2023-06-26T16:02:34;99501.34;;;27.21;36.60
27984;BME280;15317;50.360;8.726;2023-06-26T16:07:37;99490.06;;;27.48;37.40
27984;BME280;15317;50.360;8.726;2023-06-26T16:12:59;99510.06;;;27.77;34.70
27984;BME280;15317;50.360;8.726;2023-06-26T16:18:04;99523.84;;;27.99;34.51
27984;BME280;15317;50.360;8.726;2023-06-26T16:23:08;99520.44;;;27.86;34.09
27984;BME280;15317;50.360;8.726;2023-06-26T16:28:13;99531.16;;;28.10;34.42
27984;BME280;15317;50.360;8.726;2023-06-26T16:33:17;99539.28;;;28.11;33.85
27984;BME280;15317;50.360;8.726;2023-06-26T16:38:20;99541.75;;;28.08;35.22
27984;BME280;15317;50.360;8.726;2023-06-26T16:43:25;99535.63;;;27.59;34.16
27984;BME280;15317;50.360;8.726;2023-06-26T16:48:28;99526.78;;;27.72;35.73
27984;BME280;15317;50.360;8.726;2023-06-26T16:53:32;99527.31;;;28.16;35.46
27984;BME280;15317;50.360;8.726;2023-06-26T16:58:36;99532.38;;;28.39;34.76
27984;BME280;15317;50.360;8.726;2023-06-26T17:03:39;99533.22;;;27.77;35.70
27984;BME280;15317;50.360;8.726;2023-06-26T17:08:43;99534.13;;;27.46;36.42
27984;BME280;15317;50.360;8.726;2023-06-26T17:13:47;99547.66;;;27.64;34.24
27984;BME280;15317;50.360;8.726;2023-06-26T17:18:51;99547.72;;;27.00;36.89
27984;BME280;15317;50.360;8.726;2023-06-26T17:23:54;99546.72;;;26.58;36.93
27984;BME280;15317;50.360;8.726;2023-06-26T17:28:58;99562.25;;;25.67;37.50
27984;BME280;15317;50.360;8.726;2023-06-26T17:34:01;99557.28;;;25.69;38.46
27984;BME280;15317;50.360;8.726;2023-06-26T17:39:05;99579.13;;;25.27;39.64
27984;BME280;15317;50.360;8.726;2023-06-26T17:44:10;99580.22;;;24.92;39.78
27984;BME280;15317;50.360;8.726;2023-06-26T17:49:13;99580.06;;;24.70;39.87
27984;BME280;15317;50.360;8.726;2023-06-26T17:54:17;99585.06;;;24.17;39.02
27984;BME280;15317;50.360;8.726;2023-06-26T17:59:21;99588.44;;;23.55;40.74
27984;BME280;15317;50.360;8.726;2023-06-26T18:04:25;99586.22;;;22.99;41.96
27984;BME280;15317;50.360;8.726;2023-06-26T18:09:28;99603.84;;;22.75;41.63
27984;BME280;15317;50.360;8.726;2023-06-26T18:14:33;99599.66;;;22.66;42.51
27984;BME280;15317;50.360;8.726;2023-06-26T18:19:37;99609.28;;;22.52;44.03
27984;BME280;15317;50.360;8.726;2023-06-26T18:24:40;99615.72;;;22.45;43.26
27984;BME280;15317;50.360;8.726;2023-06-26T18:29:44;99620.13;;;22.35;43.15
27984;BME280;15317;50.360;8.726;2023-06-26T18:34:47;99620.38;;;22.15;42.91
27984;BME280;15317;50.360;8.726;2023-06-26T18:39:51;99615.03;;;22.02;43.95
27984;BME280;15317;50.360;8.726;2023-06-26T18:44:55;99628.34;;;21.87;44.32
27984;BME280;15317;50.360;8.726;2023-06-26T18:49:58;99613.75;;;21.80;44.45
27984;BME280;15317;50.360;8.726;2023-06-26T18:55:01;99631.94;;;21.69;44.83
27984;BME280;15317;50.360;8.726;2023-06-26T19:00:07;99634.28;;;21.47;45.48
27984;BME280;15317;50.360;8.726;2023-06-26T19:05:11;99641.16;;;21.38;45.70
27984;BME280;15317;50.360;8.726;2023-06-26T19:10:17;99653.13;;;21.32;45.97
27984;BME280;15317;50.360;8.726;2023-06-26T19:15:22;99651.16;;;21.08;46.72
27984;BME280;15317;50.360;8.726;2023-06-26T19:20:26;99657.38;;;20.97;46.70
27984;BME280;15317;50.360;8.726;2023-06-26T19:25:29;99671.28;;;20.83;47.24
27984;BME280;15317;50.360;8.726;2023-06-26T19:30:34;99678.16;;;20.74;46.96
27984;BME280;15317;50.360;8.726;2023-06-26T19:35:37;99682.91;;;20.54;48.29
27984;BME280;15317;50.360;8.726;2023-06-26T19:40:41;99684.25;;;20.45;47.95
27984;BME280;15317;50.360;8.726;2023-06-26T19:45:46;99687.91;;;20.26;49.41
27984;BME280;15317;50.360;8.726;2023-06-26T19:50:49;99694.03;;;20.21;48.77
27984;BME280;15317;50.360;8.726;2023-06-26T19:55:52;99700.03;;;20.11;48.73
27984;BME280;15317;50.360;8.726;2023-06-26T20:00:56;99702.16;;;20.09;50.65
27984;BME280;15317;50.360;8.726;2023-06-26T20:05:59;99706.19;;;20.00;50.05
27984;BME280;15317;50.360;8.726;2023-06-26T20:11:03;99714.25;;;19.95;48.93
27984;BME280;15317;50.360;8.726;2023-06-26T20:16:07;99723.19;;;19.84;48.99
27984;BME280;15317;50.360;8.726;2023-06-26T20:21:10;99717.03;;;19.82;49.62
27984;BME280;15317;50.360;8.726;2023-06-26T20:26:13;99735.72;;;19.67;49.96
27984;BME280;15317;50.360;8.726;2023-06-26T20:31:18;99737.81;;;19.58;50.30
27984;BME280;15317;50.360;8.726;2023-06-26T20:36:21;99732.50;;;19.44;51.24
27984;BME280;15317;50.360;8.726;2023-06-26T20:41:26;99733.75;;;19.28;51.69
27984;BME280;15317;50.360;8.726;2023-06-26T20:46:31;99737.16;;;19.17;52.56
27984;BME280;15317;50.360;8.726;2023-06-26T20:51:35;99737.34;;;19.09;51.82
27984;BME280;15317;50.360;8.726;2023-06-26T20:56:39;99739.81;;;18.97;51.17
27984;BME280;15317;50.360;8.726;2023-06-26T21:01:45;99745.13;;;18.92;51.81
27984;BME280;15317;50.360;8.726;2023-06-26T21:06:48;99745.28;;;18.84;52.67
27984;BME280;15317;50.360;8.726;2023-06-26T21:11:51;99746.56;;;18.75;51.98
27984;BME280;15317;50.360;8.726;2023-06-26T21:16:56;99754.78;;;18.68;54.28
27984;BME280;15317;50.360;8.726;2023-06-26T21:21:59;99761.19;;;18.41;55.43
27984;BME280;15317;50.360;8.726;2023-06-26T21:27:03;99758.59;;;18.33;55.22
27984;BME280;15317;50.360;8.726;2023-06-26T21:32:08;99776.50;;;18.22;56.31
27984;BME280;15317;50.360;8.726;2023-06-26T21:37:11;99783.38;;;18.05;57.89
27984;BME280;15317;50.360;8.726;2023-06-26T21:42:15;99785.38;;;17.90;60.21
27984;BME280;15317;50.360;8.726;2023-06-26T21:47:19;99791.56;;;17.70;59.89
27984;BME280;15317;50.360;8.726;2023-06-26T21:52:22;99793.91;;;17.52;63.50
27984;BME280;15317;50.360;8.726;2023-06-26T21:57:26;99797.97;;;17.35;63.31
27984;BME280;15317;50.360;8.726;2023-06-26T22:02:31;99796.38;;;17.05;65.77
27984;BME280;15317;50.360;8.726;2023-06-26T22:07:34;99801.25;;;16.88;67.33
27984;BME280;15317;50.360;8.726;2023-06-26T22:12:56;99798.25;;;16.68;66.13
27984;BME280;15317;50.360;8.726;2023-06-26T22:18:01;99802.81;;;16.61;69.03
27984;BME280;15317;50.360;8.726;2023-06-26T22:23:04;99806.38;;;16.47;70.96
27984;BME280;15317;50.360;8.726;2023-06-26T22:28:07;99807.22;;;16.33;72.89
27984;BME280;15317;50.360;8.726;2023-06-26T22:33:12;99806.69;;;16.23;72.00
27984;BME280;15317;50.360;8.726;2023-06-26T22:38:15;99806.84;;;16.06;70.63
27984;BME280;15317;50.360;8.726;2023-06-26T22:43:19;99807.69;;;16.07;71.04
27984;BME280;15317;50.360;8.726;2023-06-26T22:48:23;99808.44;;;16.01;72.66
27984;BME280;15317;50.360;8.726;2023-06-26T22:53:27;99811.44;;;15.91;76.59
27984;BME280;15317;50.360;8.726;2023-06-26T22:58:30;99816.53;;;15.79;78.60
27984;BME280;15317;50.360;8.726;2023-06-26T23:03:35;99815.81;;;15.63;79.65
27984;BME280;15317;50.360;8.726;2023-06-26T23:08:38;99813.03;;;15.48;80.23
27984;BME280;15317;50.360;8.726;2023-06-26T23:13:41;99814.16;;;15.31;81.92
27984;BME280;15317;50.360;8.726;2023-06-26T23:18:46;99820.94;;;15.20;84.02
27984;BME280;15317;50.360;8.726;2023-06-26T23:23:50;99830.25;;;15.03;84.01
27984;BME280;15317;50.360;8.726;2023-06-26T23:28:55;99830.00;;;14.90;85.88
27984;BME280;15317;50.360;8.726;2023-06-26T23:33:59;99827.25;;;14.90;85.63
27984;BME280;15317;50.360;8.726;2023-06-26T23:39:03;99827.97;;;14.84;85.63
27984;BME280;15317;50.360;8.726;2023-06-26T23:44:06;99838.22;;;14.82;85.50
27984;BME280;15317;50.360;8.726;2023-06-26T23:49:11;99838.59;;;14.79;84.67
27984;BME280;15317;50.360;8.726;2023-06-26T23:54:14;99829.72;;;14.77;84.15
27984;BME280;15317;50.360;8.726;2023-06-26T23:59:18;99839.81;;;14.76;83.44
